Terminal Aerodrome Forecast
Issued by NWS Tuscon, AZ

Current Version | Previous Version | Text Only | Print | Product List | Glossary On
Versions: 1 2 3 4 5 6 7 8 9 10 11 12 13 14 15 16 17
000
FTUS45 KTWC 191200 AAA
TAFTUS
TAF AMD
KTUS 191243Z 1913/2012 14005KT P6SM VCSH SCT045 BKN070
     FM192000 29007KT P6SM SCT050 BKN080
     FM200600 14005KT P6SM SCT090=

USA.gov is the U.S. government's official web portal to all federal, state and local government web resources and services.